sensor_id;sensor_type;location;lat;lon;timestamp;temperature;humidity
3727;DHT22;1879;45.876;12.300;2023-02-12T00:01:51;4.30;85.40
3727;DHT22;1879;45.876;12.300;2023-02-12T00:04:18;4.30;85.40
3727;DHT22;1879;45.876;12.300;2023-02-12T00:06:45;4.30;86.00
3727;DHT22;1879;45.876;12.300;2023-02-12T00:09:12;4.30;86.90
3727;DHT22;1879;45.876;12.300;2023-02-12T00:11:38;4.30;88.10
3727;DHT22;1879;45.876;12.300;2023-02-12T00:14:07;4.20;87.50
3727;DHT22;1879;45.876;12.300;2023-02-12T00:16:34;4.20;88.30
3727;DHT22;1879;45.876;12.300;2023-02-12T00:19:01;4.10;88.50
3727;DHT22;1879;45.876;12.300;2023-02-12T00:21:28;4.00;88.50
3727;DHT22;1879;45.876;12.300;2023-02-12T00:23:56;4.00;88.70
3727;DHT22;1879;45.876;12.300;2023-02-12T00:26:23;4.00;87.70
3727;DHT22;1879;45.876;12.300;2023-02-12T00:28:51;4.00;87.30
3727;DHT22;1879;45.876;12.300;2023-02-12T00:31:21;4.00;87.80
3727;DHT22;1879;45.876;12.300;2023-02-12T00:33:49;4.00;87.60
3727;DHT22;1879;45.876;12.300;2023-02-12T00:36:18;3.90;87.80
3727;DHT22;1879;45.876;12.300;2023-02-12T00:38:46;3.80;89.00
3727;DHT22;1879;45.876;12.300;2023-02-12T00:41:14;3.90;89.40
3727;DHT22;1879;45.876;12.300;2023-02-12T00:43:41;3.90;89.40
3727;DHT22;1879;45.876;12.300;2023-02-12T00:46:08;4.00;90.00
3727;DHT22;1879;45.876;12.300;2023-02-12T00:48:36;3.90;90.30
3727;DHT22;1879;45.876;12.300;2023-02-12T00:51:04;3.90;90.10
3727;DHT22;1879;45.876;12.300;2023-02-12T00:53:31;3.90;89.70
3727;DHT22;1879;45.876;12.300;2023-02-12T00:55:58;3.80;89.50
3727;DHT22;1879;45.876;12.300;2023-02-12T00:58:26;3.60;90.10
3727;DHT22;1879;45.876;12.300;2023-02-12T01:00:53;3.60;90.00
3727;DHT22;1879;45.876;12.300;2023-02-12T01:03:20;3.60;89.50
3727;DHT22;1879;45.876;12.300;2023-02-12T01:05:49;3.60;89.60
3727;DHT22;1879;45.876;12.300;2023-02-12T01:08:16;3.60;89.90
3727;DHT22;1879;45.876;12.300;2023-02-12T01:10:43;3.50;90.20
3727;DHT22;1879;45.876;12.300;2023-02-12T01:13:12;3.60;90.40
3727;DHT22;1879;45.876;12.300;2023-02-12T01:15:40;3.60;90.50
3727;DHT22;1879;45.876;12.300;2023-02-12T01:18:07;3.60;90.10
3727;DHT22;1879;45.876;12.300;2023-02-12T01:20:34;3.60;90.40
3727;DHT22;1879;45.876;12.300;2023-02-12T01:23:02;3.60;90.60
3727;DHT22;1879;45.876;12.300;2023-02-12T01:25:31;3.60;91.10
3727;DHT22;1879;45.876;12.300;2023-02-12T01:27:58;3.50;91.20
3727;DHT22;1879;45.876;12.300;2023-02-12T01:30:25;3.40;91.40
3727;DHT22;1879;45.876;12.300;2023-02-12T01:32:52;3.40;91.70
3727;DHT22;1879;45.876;12.300;2023-02-12T01:35:20;3.40;91.80
3727;DHT22;1879;45.876;12.300;2023-02-12T01:37:47;3.40;91.40
3727;DHT22;1879;45.876;12.300;2023-02-12T01:40:17;3.40;92.00
3727;DHT22;1879;45.876;12.300;2023-02-12T01:42:44;3.30;92.50
3727;DHT22;1879;45.876;12.300;2023-02-12T01:48:13;3.30;91.90
3727;DHT22;1879;45.876;12.300;2023-02-12T01:50:42;3.40;91.30
3727;DHT22;1879;45.876;12.300;2023-02-12T01:53:09;3.50;91.40
3727;DHT22;1879;45.876;12.300;2023-02-12T01:55:39;3.40;91.50
3727;DHT22;1879;45.876;12.300;2023-02-12T01:58:08;3.40;91.90
3727;DHT22;1879;45.876;12.300;2023-02-12T02:00:35;3.30;91.80
3727;DHT22;1879;45.876;12.300;2023-02-12T02:03:03;3.30;91.60
3727;DHT22;1879;45.876;12.300;2023-02-12T02:05:38;3.30;91.70
3727;DHT22;1879;45.876;12.300;2023-02-12T02:08:08;3.30;91.40
3727;DHT22;1879;45.876;12.300;2023-02-12T02:10:35;3.30;91.90
3727;DHT22;1879;45.876;12.300;2023-02-12T02:13:04;3.20;92.40
3727;DHT22;1879;45.876;12.300;2023-02-12T02:15:51;3.10;92.40
3727;DHT22;1879;45.876;12.300;2023-02-12T02:18:23;3.10;92.50
3727;DHT22;1879;45.876;12.300;2023-02-12T02:21:15;3.00;92.70
3727;DHT22;1879;45.876;12.300;2023-02-12T02:27:10;2.90;93.90
3727;DHT22;1879;45.876;12.300;2023-02-12T02:30:12;2.90;93.50
3727;DHT22;1879;45.876;12.300;2023-02-12T02:32:49;3.00;93.40
3727;DHT22;1879;45.876;12.300;2023-02-12T02:35:25;3.00;93.20
3727;DHT22;1879;45.876;12.300;2023-02-12T02:38:00;3.00;94.10
3727;DHT22;1879;45.876;12.300;2023-02-12T02:40:32;3.00;93.90
3727;DHT22;1879;45.876;12.300;2023-02-12T02:43:05;2.90;93.80
3727;DHT22;1879;45.876;12.300;2023-02-12T02:45:38;2.90;93.80
3727;DHT22;1879;45.876;12.300;2023-02-12T02:48:10;2.80;93.90
3727;DHT22;1879;45.876;12.300;2023-02-12T02:50:41;2.70;94.20
3727;DHT22;1879;45.876;12.300;2023-02-12T02:53:12;2.50;94.70
3727;DHT22;1879;45.876;12.300;2023-02-12T02:55:50;2.50;94.90
3727;DHT22;1879;45.876;12.300;2023-02-12T02:58:21;2.40;95.80
3727;DHT22;1879;45.876;12.300;2023-02-12T03:00:54;2.50;95.70
3727;DHT22;1879;45.876;12.300;2023-02-12T03:03:27;2.30;95.00
3727;DHT22;1879;45.876;12.300;2023-02-12T03:06:00;2.20;96.00
3727;DHT22;1879;45.876;12.300;2023-02-12T03:08:30;2.10;96.30
3727;DHT22;1879;45.876;12.300;2023-02-12T03:11:04;2.20;95.80
3727;DHT22;1879;45.876;12.300;2023-02-12T03:13:36;2.20;95.60
3727;DHT22;1879;45.876;12.300;2023-02-12T03:16:08;2.20;95.60
3727;DHT22;1879;45.876;12.300;2023-02-12T03:18:40;2.30;95.90
3727;DHT22;1879;45.876;12.300;2023-02-12T03:21:11;2.40;96.00
3727;DHT22;1879;45.876;12.300;2023-02-12T03:23:43;2.40;95.50
3727;DHT22;1879;45.876;12.300;2023-02-12T03:26:15;2.40;95.10
3727;DHT22;1879;45.876;12.300;2023-02-12T03:28:45;2.40;95.40
3727;DHT22;1879;45.876;12.300;2023-02-12T03:31:22;2.40;95.00
3727;DHT22;1879;45.876;12.300;2023-02-12T03:34:03;2.40;95.30
3727;DHT22;1879;45.876;12.300;2023-02-12T03:36:37;2.40;95.20
3727;DHT22;1879;45.876;12.300;2023-02-12T03:39:10;2.50;94.80
3727;DHT22;1879;45.876;12.300;2023-02-12T03:41:42;2.50;94.70
3727;DHT22;1879;45.876;12.300;2023-02-12T03:44:17;2.40;94.80
3727;DHT22;1879;45.876;12.300;2023-02-12T03:46:55;2.40;95.20
3727;DHT22;1879;45.876;12.300;2023-02-12T03:49:28;2.30;95.30
3727;DHT22;1879;45.876;12.300;2023-02-12T03:51:57;2.30;94.80
3727;DHT22;1879;45.876;12.300;2023-02-12T03:54:25;2.30;95.30
3727;DHT22;1879;45.876;12.300;2023-02-12T03:56:56;2.20;97.00
3727;DHT22;1879;45.876;12.300;2023-02-12T03:59:26;2.10;96.30
3727;DHT22;1879;45.876;12.300;2023-02-12T04:01:57;2.10;95.60
3727;DHT22;1879;45.876;12.300;2023-02-12T04:04:25;2.10;95.50
3727;DHT22;1879;45.876;12.300;2023-02-12T04:06:53;2.10;95.10
3727;DHT22;1879;45.876;12.300;2023-02-12T04:09:21;2.10;95.20
3727;DHT22;1879;45.876;12.300;2023-02-12T04:12:01;2.00;95.90
3727;DHT22;1879;45.876;12.300;2023-02-12T04:14:35;2.00;96.60
3727;DHT22;1879;45.876;12.300;2023-02-12T04:17:11;2.00;95.90
3727;DHT22;1879;45.876;12.300;2023-02-12T04:19:49;2.00;96.10
3727;DHT22;1879;45.876;12.300;2023-02-12T04:22:33;1.90;97.50
3727;DHT22;1879;45.876;12.300;2023-02-12T04:25:10;1.90;97.70
3727;DHT22;1879;45.876;12.300;2023-02-12T04:27:47;1.90;97.80
3727;DHT22;1879;45.876;12.300;2023-02-12T04:30:20;1.90;97.90
3727;DHT22;1879;45.876;12.300;2023-02-12T04:32:53;1.90;97.90
3727;DHT22;1879;45.876;12.300;2023-02-12T04:35:25;1.90;98.40
3727;DHT22;1879;45.876;12.300;2023-02-12T04:38:00;2.00;98.40
3727;DHT22;1879;45.876;12.300;2023-02-12T04:40:29;2.10;97.90
3727;DHT22;1879;45.876;12.300;2023-02-12T04:42:56;2.10;97.10
3727;DHT22;1879;45.876;12.300;2023-02-12T04:45:25;2.20;96.60
3727;DHT22;1879;45.876;12.300;2023-02-12T04:47:54;2.20;96.10
3727;DHT22;1879;45.876;12.300;2023-02-12T04:50:21;2.20;96.40
3727;DHT22;1879;45.876;12.300;2023-02-12T04:52:51;2.20;96.50
3727;DHT22;1879;45.876;12.300;2023-02-12T04:55:19;2.20;96.70
3727;DHT22;1879;45.876;12.300;2023-02-12T04:57:47;2.20;96.70
3727;DHT22;1879;45.876;12.300;2023-02-12T05:00:15;2.10;96.90
3727;DHT22;1879;45.876;12.300;2023-02-12T05:02:42;2.00;97.40
3727;DHT22;1879;45.876;12.300;2023-02-12T05:05:10;2.00;97.90
3727;DHT22;1879;45.876;12.300;2023-02-12T05:07:37;2.00;97.70
3727;DHT22;1879;45.876;12.300;2023-02-12T05:10:05;2.00;97.80
3727;DHT22;1879;45.876;12.300;2023-02-12T05:12:32;2.10;97.60
3727;DHT22;1879;45.876;12.300;2023-02-12T05:14:59;2.10;97.20
3727;DHT22;1879;45.876;12.300;2023-02-12T05:17:26;2.10;97.00
3727;DHT22;1879;45.876;12.300;2023-02-12T05:19:53;2.10;97.10
3727;DHT22;1879;45.876;12.300;2023-02-12T05:22:21;2.10;98.00
3727;DHT22;1879;45.876;12.300;2023-02-12T05:24:49;2.00;97.50
3727;DHT22;1879;45.876;12.300;2023-02-12T05:27:16;1.90;98.20
3727;DHT22;1879;45.876;12.300;2023-02-12T05:29:43;1.90;98.40
3727;DHT22;1879;45.876;12.300;2023-02-12T05:32:10;1.90;98.30
3727;DHT22;1879;45.876;12.300;2023-02-12T05:34:37;1.90;98.20
3727;DHT22;1879;45.876;12.300;2023-02-12T05:37:04;1.90;98.00
3727;DHT22;1879;45.876;12.300;2023-02-12T05:39:32;1.90;98.30
3727;DHT22;1879;45.876;12.300;2023-02-12T05:41:59;1.90;97.70
3727;DHT22;1879;45.876;12.300;2023-02-12T05:44:26;1.90;96.80
3727;DHT22;1879;45.876;12.300;2023-02-12T05:46:53;2.00;96.20
3727;DHT22;1879;45.876;12.300;2023-02-12T05:49:20;2.00;97.00
3727;DHT22;1879;45.876;12.300;2023-02-12T05:51:48;1.90;96.60
3727;DHT22;1879;45.876;12.300;2023-02-12T05:54:15;1.90;97.00
3727;DHT22;1879;45.876;12.300;2023-02-12T05:56:45;1.90;97.30
3727;DHT22;1879;45.876;12.300;2023-02-12T05:59:16;1.80;97.50
3727;DHT22;1879;45.876;12.300;2023-02-12T06:01:44;1.70;97.80
3727;DHT22;1879;45.876;12.300;2023-02-12T06:04:14;1.70;98.30
3727;DHT22;1879;45.876;12.300;2023-02-12T06:06:42;1.60;98.60
3727;DHT22;1879;45.876;12.300;2023-02-12T06:09:09;1.60;99.00
3727;DHT22;1879;45.876;12.300;2023-02-12T06:11:37;1.50;99.30
3727;DHT22;1879;45.876;12.300;2023-02-12T06:14:10;1.50;99.50
3727;DHT22;1879;45.876;12.300;2023-02-12T06:16:38;1.50;99.60
3727;DHT22;1879;45.876;12.300;2023-02-12T06:19:05;1.60;99.00
3727;DHT22;1879;45.876;12.300;2023-02-12T06:21:33;1.60;99.30
3727;DHT22;1879;45.876;12.300;2023-02-12T06:24:00;1.60;99.70
3727;DHT22;1879;45.876;12.300;2023-02-12T06:26:27;1.60;99.60
3727;DHT22;1879;45.876;12.300;2023-02-12T06:28:54;1.60;99.50
3727;DHT22;1879;45.876;12.300;2023-02-12T06:31:24;1.60;99.20
3727;DHT22;1879;45.876;12.300;2023-02-12T06:33:52;1.50;99.90
3727;DHT22;1879;45.876;12.300;2023-02-12T06:36:20;1.50;99.90
3727;DHT22;1879;45.876;12.300;2023-02-12T06:38:48;1.50;99.70
3727;DHT22;1879;45.876;12.300;2023-02-12T06:41:15;1.50;99.20
3727;DHT22;1879;45.876;12.300;2023-02-12T06:43:42;1.60;99.20
3727;DHT22;1879;45.876;12.300;2023-02-12T06:46:09;1.60;99.10
3727;DHT22;1879;45.876;12.300;2023-02-12T06:48:38;1.70;98.80
3727;DHT22;1879;45.876;12.300;2023-02-12T06:51:06;1.80;98.30
3727;DHT22;1879;45.876;12.300;2023-02-12T06:53:34;1.80;98.40
3727;DHT22;1879;45.876;12.300;2023-02-12T06:56:02;1.90;98.30
3727;DHT22;1879;45.876;12.300;2023-02-12T06:58:30;2.00;97.70
3727;DHT22;1879;45.876;12.300;2023-02-12T07:01:07;2.10;97.40
3727;DHT22;1879;45.876;12.300;2023-02-12T07:03:35;2.30;97.30
3727;DHT22;1879;45.876;12.300;2023-02-12T07:06:06;2.30;97.00
3727;DHT22;1879;45.876;12.300;2023-02-12T07:08:33;2.40;96.80
3727;DHT22;1879;45.876;12.300;2023-02-12T07:11:00;2.50;96.60
3727;DHT22;1879;45.876;12.300;2023-02-12T07:13:27;2.60;96.30
3727;DHT22;1879;45.876;12.300;2023-02-12T07:15:54;2.70;95.70
3727;DHT22;1879;45.876;12.300;2023-02-12T07:18:21;2.80;93.60
3727;DHT22;1879;45.876;12.300;2023-02-12T07:20:47;3.00;93.20
3727;DHT22;1879;45.876;12.300;2023-02-12T07:23:16;3.10;92.70
3727;DHT22;1879;45.876;12.300;2023-02-12T07:25:43;3.20;92.70
3727;DHT22;1879;45.876;12.300;2023-02-12T07:28:10;3.30;92.60
3727;DHT22;1879;45.876;12.300;2023-02-12T07:30:37;3.40;92.30
3727;DHT22;1879;45.876;12.300;2023-02-12T07:33:04;3.50;91.70
3727;DHT22;1879;45.876;12.300;2023-02-12T07:35:31;3.60;91.40
3727;DHT22;1879;45.876;12.300;2023-02-12T07:37:57;3.70;91.80
3727;DHT22;1879;45.876;12.300;2023-02-12T07:40:26;3.70;91.70
3727;DHT22;1879;45.876;12.300;2023-02-12T07:42:54;3.80;91.30
3727;DHT22;1879;45.876;12.300;2023-02-12T07:45:21;3.90;90.70
3727;DHT22;1879;45.876;12.300;2023-02-12T07:47:49;4.00;91.00
3727;DHT22;1879;45.876;12.300;2023-02-12T07:50:16;4.00;91.50
3727;DHT22;1879;45.876;12.300;2023-02-12T07:52:43;4.10;91.40
3727;DHT22;1879;45.876;12.300;2023-02-12T07:55:10;4.10;91.70
3727;DHT22;1879;45.876;12.300;2023-02-12T07:57:39;4.20;91.40
3727;DHT22;1879;45.876;12.300;2023-02-12T08:00:07;4.30;91.60
3727;DHT22;1879;45.876;12.300;2023-02-12T08:02:34;4.30;92.00
3727;DHT22;1879;45.876;12.300;2023-02-12T08:05:01;4.40;92.10
3727;DHT22;1879;45.876;12.300;2023-02-12T08:07:28;4.50;92.00
3727;DHT22;1879;45.876;12.300;2023-02-12T08:09:55;4.60;92.00
3727;DHT22;1879;45.876;12.300;2023-02-12T08:12:22;4.70;91.70
3727;DHT22;1879;45.876;12.300;2023-02-12T08:14:50;4.80;91.50
3727;DHT22;1879;45.876;12.300;2023-02-12T08:17:18;4.80;91.10
3727;DHT22;1879;45.876;12.300;2023-02-12T08:19:45;5.00;91.00
3727;DHT22;1879;45.876;12.300;2023-02-12T08:22:12;5.10;90.50
3727;DHT22;1879;45.876;12.300;2023-02-12T08:24:39;5.20;90.30
3727;DHT22;1879;45.876;12.300;2023-02-12T08:27:07;5.30;90.00
3727;DHT22;1879;45.876;12.300;2023-02-12T08:29:34;5.40;89.60
3727;DHT22;1879;45.876;12.300;2023-02-12T08:32:03;5.50;89.00
3727;DHT22;1879;45.876;12.300;2023-02-12T08:34:35;5.60;87.40
3727;DHT22;1879;45.876;12.300;2023-02-12T08:37:04;5.80;87.10
3727;DHT22;1879;45.876;12.300;2023-02-12T08:39:31;6.00;89.40
3727;DHT22;1879;45.876;12.300;2023-02-12T08:41:59;6.30;88.20
3727;DHT22;1879;45.876;12.300;2023-02-12T08:44:27;6.50;84.20
3727;DHT22;1879;45.876;12.300;2023-02-12T08:46:54;6.60;81.80
3727;DHT22;1879;45.876;12.300;2023-02-12T08:49:25;6.70;82.00
3727;DHT22;1879;45.876;12.300;2023-02-12T08:51:54;6.80;80.90
3727;DHT22;1879;45.876;12.300;2023-02-12T08:54:23;6.90;79.60
3727;DHT22;1879;45.876;12.300;2023-02-12T08:56:53;7.00;77.50
3727;DHT22;1879;45.876;12.300;2023-02-12T08:59:21;7.10;76.70
3727;DHT22;1879;45.876;12.300;2023-02-12T09:01:49;7.10;75.40
3727;DHT22;1879;45.876;12.300;2023-02-12T09:04:18;7.20;74.60
3727;DHT22;1879;45.876;12.300;2023-02-12T09:06:48;7.30;73.80
3727;DHT22;1879;45.876;12.300;2023-02-12T09:09:15;7.40;72.10
3727;DHT22;1879;45.876;12.300;2023-02-12T09:11:44;7.50;70.70
3727;DHT22;1879;45.876;12.300;2023-02-12T09:14:13;7.50;71.00
3727;DHT22;1879;45.876;12.300;2023-02-12T09:16:41;7.60;70.70
3727;DHT22;1879;45.876;12.300;2023-02-12T09:19:12;7.60;70.50
3727;DHT22;1879;45.876;12.300;2023-02-12T09:21:39;7.70;70.50
3727;DHT22;1879;45.876;12.300;2023-02-12T09:24:08;7.90;72.60
3727;DHT22;1879;45.876;12.300;2023-02-12T09:26:35;8.00;70.10
3727;DHT22;1879;45.876;12.300;2023-02-12T09:29:03;8.00;68.60
3727;DHT22;1879;45.876;12.300;2023-02-12T09:31:31;8.20;67.30
3727;DHT22;1879;45.876;12.300;2023-02-12T09:34:00;8.20;65.60
3727;DHT22;1879;45.876;12.300;2023-02-12T09:36:28;8.20;65.40
3727;DHT22;1879;45.876;12.300;2023-02-12T09:38:55;8.30;66.10
3727;DHT22;1879;45.876;12.300;2023-02-12T09:41:45;8.40;65.90
3727;DHT22;1879;45.876;12.300;2023-02-12T09:44:19;8.50;65.00
3727;DHT22;1879;45.876;12.300;2023-02-12T09:46:50;8.60;62.50
3727;DHT22;1879;45.876;12.300;2023-02-12T09:49:30;8.70;61.70
3727;DHT22;1879;45.876;12.300;2023-02-12T09:52:02;8.80;60.90
3727;DHT22;1879;45.876;12.300;2023-02-12T09:54:36;8.80;60.50
3727;DHT22;1879;45.876;12.300;2023-02-12T09:57:15;8.90;59.60
3727;DHT22;1879;45.876;12.300;2023-02-12T09:59:45;8.90;58.50
3727;DHT22;1879;45.876;12.300;2023-02-12T10:02:15;9.10;58.50
3727;DHT22;1879;45.876;12.300;2023-02-12T10:04:45;9.10;57.80
3727;DHT22;1879;45.876;12.300;2023-02-12T10:07:20;9.20;56.30
3727;DHT22;1879;45.876;12.300;2023-02-12T10:10:04;9.20;56.20
3727;DHT22;1879;45.876;12.300;2023-02-12T10:12:38;9.30;56.40
3727;DHT22;1879;45.876;12.300;2023-02-12T10:15:25;9.40;55.90
3727;DHT22;1879;45.876;12.300;2023-02-12T10:17:59;9.60;55.60
3727;DHT22;1879;45.876;12.300;2023-02-12T10:20:51;9.70;55.80
3727;DHT22;1879;45.876;12.300;2023-02-12T10:23:38;9.80;54.80
3727;DHT22;1879;45.876;12.300;2023-02-12T10:26:15;9.90;53.80
3727;DHT22;1879;45.876;12.300;2023-02-12T10:28:45;10.10;52.80
3727;DHT22;1879;45.876;12.300;2023-02-12T10:31:28;10.20;52.90
3727;DHT22;1879;45.876;12.300;2023-02-12T10:33:56;10.30;52.50
3727;DHT22;1879;45.876;12.300;2023-02-12T10:36:32;10.40;52.50
3727;DHT22;1879;45.876;12.300;2023-02-12T10:39:10;10.60;51.30
3727;DHT22;1879;45.876;12.300;2023-02-12T10:41:42;10.70;51.50
3727;DHT22;1879;45.876;12.300;2023-02-12T10:44:11;10.90;51.40
3727;DHT22;1879;45.876;12.300;2023-02-12T10:46:38;11.00;49.60
3727;DHT22;1879;45.876;12.300;2023-02-12T10:49:05;11.10;48.80
3727;DHT22;1879;45.876;12.300;2023-02-12T10:51:42;11.30;48.40
3727;DHT22;1879;45.876;12.300;2023-02-12T10:54:41;11.50;48.10
3727;DHT22;1879;45.876;12.300;2023-02-12T10:57:18;11.60;47.30
3727;DHT22;1879;45.876;12.300;2023-02-12T10:59:48;11.80;47.30
3727;DHT22;1879;45.876;12.300;2023-02-12T11:02:22;12.10;47.00
3727;DHT22;1879;45.876;12.300;2023-02-12T11:04:51;12.20;46.30
3727;DHT22;1879;45.876;12.300;2023-02-12T11:07:19;12.30;46.00
3727;DHT22;1879;45.876;12.300;2023-02-12T11:09:48;12.30;46.10
3727;DHT22;1879;45.876;12.300;2023-02-12T11:12:30;12.40;45.30
3727;DHT22;1879;45.876;12.300;2023-02-12T11:15:00;12.40;44.50
3727;DHT22;1879;45.876;12.300;2023-02-12T11:17:34;12.50;44.70
3727;DHT22;1879;45.876;12.300;2023-02-12T11:20:06;12.50;44.80
3727;DHT22;1879;45.876;12.300;2023-02-12T11:22:35;12.60;45.00
3727;DHT22;1879;45.876;12.300;2023-02-12T11:25:14;12.70;44.60
3727;DHT22;1879;45.876;12.300;2023-02-12T11:27:42;12.80;44.80
3727;DHT22;1879;45.876;12.300;2023-02-12T11:30:16;12.90;44.70
3727;DHT22;1879;45.876;12.300;2023-02-12T11:32:45;12.90;43.80
3727;DHT22;1879;45.876;12.300;2023-02-12T11:35:16;13.00;44.00
3727;DHT22;1879;45.876;12.300;2023-02-12T11:37:50;13.40;43.50
3727;DHT22;1879;45.876;12.300;2023-02-12T11:40:21;14.20;43.80
3727;DHT22;1879;45.876;12.300;2023-02-12T11:42:51;15.50;43.50
3727;DHT22;1879;45.876;12.300;2023-02-12T11:47:48;19.10;39.00
3727;DHT22;1879;45.876;12.300;2023-02-12T11:50:23;20.50;37.30
3727;DHT22;1879;45.876;12.300;2023-02-12T11:52:52;21.60;35.40
3727;DHT22;1879;45.876;12.300;2023-02-12T11:55:23;22.80;34.00
3727;DHT22;1879;45.876;12.300;2023-02-12T11:57:52;23.90;32.60
3727;DHT22;1879;45.876;12.300;2023-02-12T12:00:28;24.80;30.80
3727;DHT22;1879;45.876;12.300;2023-02-12T12:02:59;25.30;28.80
3727;DHT22;1879;45.876;12.300;2023-02-12T12:05:35;25.60;28.40
3727;DHT22;1879;45.876;12.300;2023-02-12T12:08:05;26.40;25.70
3727;DHT22;1879;45.876;12.300;2023-02-12T12:10:37;26.80;27.00
3727;DHT22;1879;45.876;12.300;2023-02-12T12:13:12;26.40;25.60
3727;DHT22;1879;45.876;12.300;2023-02-12T12:15:46;26.70;25.30
3727;DHT22;1879;45.876;12.300;2023-02-12T12:18:38;27.20;25.40
3727;DHT22;1879;45.876;12.300;2023-02-12T12:21:36;27.60;23.90
3727;DHT22;1879;45.876;12.300;2023-02-12T12:24:10;28.00;23.80
3727;DHT22;1879;45.876;12.300;2023-02-12T12:26:41;28.20;23.70
3727;DHT22;1879;45.876;12.300;2023-02-12T12:29:12;28.60;23.80
3727;DHT22;1879;45.876;12.300;2023-02-12T12:31:45;28.40;23.20
3727;DHT22;1879;45.876;12.300;2023-02-12T12:34:18;29.00;23.10
3727;DHT22;1879;45.876;12.300;2023-02-12T12:37:11;28.90;21.60
3727;DHT22;1879;45.876;12.300;2023-02-12T12:39:51;29.20;21.70
3727;DHT22;1879;45.876;12.300;2023-02-12T12:43:00;30.00;21.10
3727;DHT22;1879;45.876;12.300;2023-02-12T12:45:54;30.40;21.60
3727;DHT22;1879;45.876;12.300;2023-02-12T12:48:39;31.20;21.10
3727;DHT22;1879;45.876;12.300;2023-02-12T12:51:19;30.90;20.50
3727;DHT22;1879;45.876;12.300;2023-02-12T12:54:09;31.40;20.70
3727;DHT22;1879;45.876;12.300;2023-02-12T12:56:51;31.90;20.80
3727;DHT22;1879;45.876;12.300;2023-02-12T12:59:37;31.50;20.10
3727;DHT22;1879;45.876;12.300;2023-02-12T13:02:32;31.50;20.00
3727;DHT22;1879;45.876;12.300;2023-02-12T13:05:36;31.80;19.70
3727;DHT22;1879;45.876;12.300;2023-02-12T13:08:17;32.20;19.20
3727;DHT22;1879;45.876;12.300;2023-02-12T13:10:52;32.20;18.30
3727;DHT22;1879;45.876;12.300;2023-02-12T13:13:25;31.50;17.80
3727;DHT22;1879;45.876;12.300;2023-02-12T13:16:02;30.70;17.60
3727;DHT22;1879;45.876;12.300;2023-02-12T13:18:39;29.80;17.30
3727;DHT22;1879;45.876;12.300;2023-02-12T13:21:20;28.90;17.90
3727;DHT22;1879;45.876;12.300;2023-02-12T13:23:53;28.80;19.00
3727;DHT22;1879;45.876;12.300;2023-02-12T13:26:26;28.20;18.20
3727;DHT22;1879;45.876;12.300;2023-02-12T13:28:59;27.40;18.00
3727;DHT22;1879;45.876;12.300;2023-02-12T13:31:33;27.30;18.70
3727;DHT22;1879;45.876;12.300;2023-02-12T13:34:04;27.60;18.90
3727;DHT22;1879;45.876;12.300;2023-02-12T13:36:36;28.00;19.10
3727;DHT22;1879;45.876;12.300;2023-02-12T13:39:08;27.80;18.90
3727;DHT22;1879;45.876;12.300;2023-02-12T13:41:36;28.60;19.80
3727;DHT22;1879;45.876;12.300;2023-02-12T13:44:09;29.00;20.00
3727;DHT22;1879;45.876;12.300;2023-02-12T13:46:49;28.40;19.60
3727;DHT22;1879;45.876;12.300;2023-02-12T13:49:25;28.30;20.10
3727;DHT22;1879;45.876;12.300;2023-02-12T13:52:02;28.40;20.30
3727;DHT22;1879;45.876;12.300;2023-02-12T13:54:39;28.20;19.90
3727;DHT22;1879;45.876;12.300;2023-02-12T13:57:14;27.80;20.00
3727;DHT22;1879;45.876;12.300;2023-02-12T13:59:44;27.70;20.20
3727;DHT22;1879;45.876;12.300;2023-02-12T14:05:19;26.20;20.40
3727;DHT22;1879;45.876;12.300;2023-02-12T14:07:49;26.20;20.50
3727;DHT22;1879;45.876;12.300;2023-02-12T14:10:22;26.40;20.70
3727;DHT22;1879;45.876;12.300;2023-02-12T14:12:50;26.50;20.60
3727;DHT22;1879;45.876;12.300;2023-02-12T14:15:29;27.00;21.10
3727;DHT22;1879;45.876;12.300;2023-02-12T14:18:11;26.60;20.80
3727;DHT22;1879;45.876;12.300;2023-02-12T14:20:46;26.50;21.00
3727;DHT22;1879;45.876;12.300;2023-02-12T14:23:25;26.30;21.50
3727;DHT22;1879;45.876;12.300;2023-02-12T14:26:03;25.60;21.30
3727;DHT22;1879;45.876;12.300;2023-02-12T14:28:48;25.40;22.20
3727;DHT22;1879;45.876;12.300;2023-02-12T14:31:32;24.80;21.80
3727;DHT22;1879;45.876;12.300;2023-02-12T14:34:35;24.00;21.90
3727;DHT22;1879;45.876;12.300;2023-02-12T14:37:14;23.60;22.30
3727;DHT22;1879;45.876;12.300;2023-02-12T14:39:43;23.10;22.60
3727;DHT22;1879;45.876;12.300;2023-02-12T14:42:42;22.60;22.60
3727;DHT22;1879;45.876;12.300;2023-02-12T14:45:31;22.40;23.10
3727;DHT22;1879;45.876;12.300;2023-02-12T14:47:58;21.80;23.20
3727;DHT22;1879;45.876;12.300;2023-02-12T14:50:30;21.40;23.30
3727;DHT22;1879;45.876;12.300;2023-02-12T14:53:12;21.10;24.00
3727;DHT22;1879;45.876;12.300;2023-02-12T14:55:45;21.00;23.80
3727;DHT22;1879;45.876;12.300;2023-02-12T14:58:17;20.60;24.10
3727;DHT22;1879;45.876;12.300;2023-02-12T15:00:48;20.10;24.30
3727;DHT22;1879;45.876;12.300;2023-02-12T15:03:19;19.50;24.50
3727;DHT22;1879;45.876;12.300;2023-02-12T15:05:54;19.20;25.10
3727;DHT22;1879;45.876;12.300;2023-02-12T15:08:30;18.70;25.50
3727;DHT22;1879;45.876;12.300;2023-02-12T15:11:05;18.60;25.80
3727;DHT22;1879;45.876;12.300;2023-02-12T15:13:45;18.50;25.90
3727;DHT22;1879;45.876;12.300;2023-02-12T15:16:19;18.70;26.20
3727;DHT22;1879;45.876;12.300;2023-02-12T15:18:53;18.40;26.30
3727;DHT22;1879;45.876;12.300;2023-02-12T15:21:23;18.20;26.50
3727;DHT22;1879;45.876;12.300;2023-02-12T15:24:00;18.00;27.10
3727;DHT22;1879;45.876;12.300;2023-02-12T15:26:32;17.70;27.30
3727;DHT22;1879;45.876;12.300;2023-02-12T15:29:00;17.60;27.40
3727;DHT22;1879;45.876;12.300;2023-02-12T15:31:29;17.60;27.70
3727;DHT22;1879;45.876;12.300;2023-02-12T15:33:58;17.70;27.60
3727;DHT22;1879;45.876;12.300;2023-02-12T15:36:28;17.90;27.40
3727;DHT22;1879;45.876;12.300;2023-02-12T15:38:57;17.70;27.30
3727;DHT22;1879;45.876;12.300;2023-02-12T15:41:34;17.70;27.70
3727;DHT22;1879;45.876;12.300;2023-02-12T15:44:04;17.40;27.50
3727;DHT22;1879;45.876;12.300;2023-02-12T15:46:53;17.10;27.90
3727;DHT22;1879;45.876;12.300;2023-02-12T15:49:20;16.90;28.30
3727;DHT22;1879;45.876;12.300;2023-02-12T15:51:50;16.60;28.30
3727;DHT22;1879;45.876;12.300;2023-02-12T15:54:18;16.40;28.60
3727;DHT22;1879;45.876;12.300;2023-02-12T15:56:47;16.40;28.80
3727;DHT22;1879;45.876;12.300;2023-02-12T15:59:19;16.40;29.20
3727;DHT22;1879;45.876;12.300;2023-02-12T16:01:55;16.10;29.20
3727;DHT22;1879;45.876;12.300;2023-02-12T16:04:24;15.70;29.50
3727;DHT22;1879;45.876;12.300;2023-02-12T16:06:53;15.20;30.00
3727;DHT22;1879;45.876;12.300;2023-02-12T16:09:24;14.90;30.50
3727;DHT22;1879;45.876;12.300;2023-02-12T16:11:56;14.50;31.10
3727;DHT22;1879;45.876;12.300;2023-02-12T16:14:27;14.20;31.50
3727;DHT22;1879;45.876;12.300;2023-02-12T16:16:58;13.90;32.10
3727;DHT22;1879;45.876;12.300;2023-02-12T16:19:26;13.70;32.40
3727;DHT22;1879;45.876;12.300;2023-02-12T16:21:57;13.50;32.70
3727;DHT22;1879;45.876;12.300;2023-02-12T16:24:29;13.20;32.90
3727;DHT22;1879;45.876;12.300;2023-02-12T16:27:03;13.00;33.30
3727;DHT22;1879;45.876;12.300;2023-02-12T16:29:36;12.90;33.70
3727;DHT22;1879;45.876;12.300;2023-02-12T16:32:04;12.70;33.90
3727;DHT22;1879;45.876;12.300;2023-02-12T16:34:34;12.60;34.30
3727;DHT22;1879;45.876;12.300;2023-02-12T16:37:02;12.40;34.60